createdAt,value
2016-12-26T00:00:44.494Z,68.38
2016-12-26T00:01:53.191Z,68.48
2016-12-26T00:03:01.891Z,68.1
2016-12-26T00:04:10.585Z,68.48
2016-12-26T00:05:19.605Z,68.76
2016-12-26T00:06:28.303Z,68.38
2016-12-26T00:07:37.001Z,68.48
2016-12-26T00:08:45.697Z,67.81
2016-12-26T00:09:54.394Z,68.29
2016-12-26T00:11:03.116Z,67.62
2016-12-26T00:12:11.814Z,68.1
2016-12-26T00:13:20.508Z,68.57
2016-12-26T00:14:29.214Z,68.19
2016-12-26T00:15:37.912Z,68.1
2016-12-26T00:16:46.606Z,68.66
2016-12-26T00:17:55.304Z,68.1
2016-12-26T00:19:04.033Z,68.38
2016-12-26T00:20:13.040Z,68.48
2016-12-26T00:21:21.741Z,68.57
2016-12-26T00:22:30.467Z,68.38
2016-12-26T00:23:39.164Z,68.66
2016-12-26T00:24:47.867Z,68.41
2016-12-26T00:25:56.561Z,68.41
2016-12-26T00:27:05.256Z,68.66
2016-12-26T00:28:13.952Z,68.23
2016-12-26T00:29:22.655Z,67.94
2016-12-26T00:30:31.356Z,67.27
2016-12-26T00:31:40.052Z,67.27
2016-12-26T00:32:48.748Z,67.27
2016-12-26T00:33:57.446Z,66.99
2016-12-26T00:35:06.139Z,67.37
2016-12-26T00:36:15.149Z,66.8
2016-12-26T00:37:23.844Z,66.99
2016-12-26T00:38:32.543Z,66.42
2016-12-26T00:39:41.241Z,66.23
2016-12-26T00:40:49.938Z,66.04
2016-12-26T00:41:58.637Z,66.52
2016-12-26T00:43:07.336Z,66.33
2016-12-26T00:44:16.031Z,66.52
2016-12-26T00:45:24.729Z,66.52
2016-12-26T00:46:33.428Z,66.52
2016-12-26T00:47:42.121Z,67.65
2016-12-26T00:48:50.821Z,67.18
2016-12-26T00:49:59.521Z,67.85
2016-12-26T00:51:08.246Z,67.27
2016-12-26T00:52:16.949Z,67.08
2016-12-26T00:53:25.650Z,66.04
2016-12-26T00:54:34.348Z,65.66
2016-12-26T00:55:43.043Z,64.33
2016-12-26T00:56:51.739Z,64.43
2016-12-26T00:58:00.435Z,64.9
2016-12-26T00:59:09.129Z,64.9
2016-12-26T01:00:17.826Z,64.62
2016-12-26T01:01:26.519Z,65.09
2016-12-26T01:02:35.222Z,65.37
2016-12-26T01:03:43.924Z,65.37
2016-12-26T01:04:52.619Z,65.16
2016-12-26T01:06:01.315Z,65.16
2016-12-26T01:07:10.053Z,66.29
2016-12-26T01:08:19.060Z,66.1
2016-12-26T01:09:27.763Z,66.48
2016-12-26T01:10:36.490Z,67.24
2016-12-26T01:11:45.190Z,67.05
2016-12-26T01:12:53.889Z,68
2016-12-26T01:14:02.613Z,67.9
2016-12-26T01:15:11.312Z,68.19
2016-12-26T01:16:20.010Z,68.38
2016-12-26T01:17:28.705Z,68.38
2016-12-26T01:18:37.399Z,68.85
2016-12-26T01:19:46.094Z,68.66
2016-12-26T01:20:54.792Z,68.76
2016-12-26T01:22:03.495Z,68.57
2016-12-26T01:23:12.191Z,68.85
2016-12-26T01:24:20.884Z,68.48
2016-12-26T01:25:29.583Z,68.48
2016-12-26T01:26:38.309Z,68.76
2016-12-26T01:27:47.321Z,69.42
2016-12-26T01:28:56.020Z,68.66
2016-12-26T01:30:04.738Z,68.38
2016-12-26T01:31:13.430Z,68.38
2016-12-26T01:32:22.140Z,69.33
2016-12-26T01:33:30.841Z,69.13
2016-12-26T01:34:39.544Z,68.48
2016-12-26T01:35:48.242Z,68.19
2016-12-26T01:36:56.942Z,68.29
2016-12-26T01:38:05.638Z,68.76
2016-12-26T01:39:14.335Z,69.23
2016-12-26T01:40:23.029Z,70.53
2016-12-26T01:41:31.727Z,69.57
2016-12-26T01:42:40.425Z,69.48
2016-12-26T01:43:49.125Z,70.43
2016-12-26T01:44:57.845Z,70.05
2016-12-26T01:46:06.543Z,68.35
2016-12-26T01:47:15.241Z,69.1
2016-12-26T01:48:23.938Z,69.57
2016-12-26T01:49:32.632Z,69.77
2016-12-26T01:50:41.326Z,69.2
2016-12-26T01:51:50.021Z,69.29
2016-12-26T01:52:58.714Z,69.48
2016-12-26T01:54:07.409Z,69.38
2016-12-26T01:55:16.104Z,69.86
2016-12-26T01:56:24.798Z,69.67
2016-12-26T01:57:33.493Z,69.38
2016-12-26T01:58:42.191Z,69.38
2016-12-26T01:59:50.888Z,68.35
2016-12-26T02:00:59.584Z,67.4
2016-12-26T02:02:08.285Z,65.97
2016-12-26T02:03:16.987Z,65.12
2016-12-26T02:04:25.681Z,64.93
2016-12-26T02:05:34.393Z,64.36
2016-12-26T02:06:43.090Z,64.74
2016-12-26T02:07:51.785Z,64.27
2016-12-26T02:09:00.483Z,62.94
2016-12-26T02:10:09.179Z,62.37
2016-12-26T02:11:17.877Z,61.8
2016-12-26T02:12:26.572Z,61.52
2016-12-26T02:13:35.269Z,60.19
2016-12-26T02:14:43.968Z,59.72
2016-12-26T02:15:52.664Z,59.15
2016-12-26T02:17:01.357Z,60
2016-12-26T02:18:10.060Z,58.86
2016-12-26T02:19:18.757Z,58.29
2016-12-26T02:20:27.454Z,57.82
2016-12-26T02:21:36.175Z,57.54
2016-12-26T02:22:44.867Z,56.68
2016-12-26T02:23:53.561Z,55.57
2016-12-26T02:25:02.255Z,55.29
2016-12-26T02:26:10.950Z,55
2016-12-26T02:27:19.647Z,55.29
2016-12-26T02:28:28.341Z,55.29
2016-12-26T02:29:37.039Z,54.82
2016-12-26T02:30:45.743Z,54.34
2016-12-26T02:31:54.762Z,53.87
2016-12-26T02:33:03.456Z,55.19
2016-12-26T02:34:12.155Z,55.19
2016-12-26T02:35:20.850Z,55.29
2016-12-26T02:36:29.544Z,55.96
2016-12-26T02:37:38.266Z,56.12
2016-12-26T02:38:46.958Z,55.83
2016-12-26T02:39:55.655Z,57.44
2016-12-26T02:41:04.350Z,58.11
2016-12-26T02:42:13.044Z,58.39
2016-12-26T02:43:21.736Z,58.11
2016-12-26T02:44:30.429Z,58.01
2016-12-26T02:45:39.125Z,57.64
2016-12-26T02:46:47.823Z,56.3
2016-12-26T02:47:56.519Z,55.64
2016-12-26T02:49:05.213Z,54.41
2016-12-26T02:50:13.907Z,54.13
2016-12-26T02:51:22.607Z,53.84
2016-12-26T02:52:31.304Z,54.22
2016-12-26T02:53:39.996Z,54.69
2016-12-26T02:54:48.687Z,54.98
2016-12-26T02:55:57.404Z,54.98
2016-12-26T02:57:06.100Z,55.83
2016-12-26T02:58:14.794Z,54.79
2016-12-26T02:59:23.486Z,55.26
2016-12-26T03:00:32.183Z,55.26
2016-12-26T03:01:40.877Z,54.6
2016-12-26T03:02:49.570Z,54.91
2016-12-26T03:03:58.264Z,54.79
2016-12-26T03:05:06.957Z,54.98
2016-12-26T03:06:15.701Z,55.55
2016-12-26T03:07:24.434Z,55.93
2016-12-26T03:08:33.128Z,57.25
2016-12-26T03:09:41.826Z,57.16
2016-12-26T03:10:50.527Z,57.35
2016-12-26T03:11:59.220Z,57.54
2016-12-26T03:13:07.923Z,57.35
2016-12-26T03:14:16.623Z,57.44
2016-12-26T03:15:25.343Z,58.11
2016-12-26T03:16:34.039Z,58.58
2016-12-26T03:17:42.784Z,58.48
2016-12-26T03:18:51.477Z,58.2
2016-12-26T03:20:00.182Z,58.39
2016-12-26T03:21:08.886Z,58.11
2016-12-26T03:22:17.587Z,57.44
2016-12-26T03:23:26.594Z,58.77
2016-12-26T03:24:35.289Z,58.48
2016-12-26T03:25:43.985Z,58.39
2016-12-26T03:26:52.679Z,58.01
2016-12-26T03:28:01.372Z,58.2
2016-12-26T03:29:10.067Z,58.29
2016-12-26T03:30:18.765Z,58.29
2016-12-26T03:31:27.461Z,57.73
2016-12-26T03:32:36.156Z,58.01
2016-12-26T03:33:44.856Z,57.35
2016-12-26T03:34:53.553Z,58.01
2016-12-26T03:36:02.246Z,57.64
2016-12-26T03:37:10.943Z,57.54
2016-12-26T03:38:19.646Z,57.64
2016-12-26T03:39:28.340Z,58.29
2016-12-26T03:40:37.045Z,58.2
2016-12-26T03:41:45.745Z,57.73
2016-12-26T03:42:54.440Z,57.92
2016-12-26T03:44:03.137Z,58.39
2016-12-26T03:45:12.172Z,58.2
2016-12-26T03:46:20.963Z,58.2
2016-12-26T03:47:29.658Z,58.29
2016-12-26T03:48:38.347Z,58.29
2016-12-26T03:49:47.037Z,57.92
2016-12-26T03:50:55.732Z,58.77
2016-12-26T03:52:04.432Z,58.93
2016-12-26T03:53:13.129Z,59.5
2016-12-26T03:54:21.821Z,60.64
2016-12-26T03:55:30.518Z,60.25
2016-12-26T03:56:39.209Z,60.44
2016-12-26T03:57:48.263Z,60.25
2016-12-26T03:58:57.270Z,59.69
2016-12-26T04:00:05.966Z,59.69
2016-12-26T04:01:14.659Z,60.54
2016-12-26T04:02:23.353Z,60.73
2016-12-26T04:03:32.046Z,60.73
2016-12-26T04:04:40.746Z,61.11
2016-12-26T04:05:49.442Z,60.83
2016-12-26T04:06:58.475Z,61.49
2016-12-26T04:08:07.174Z,61.11
2016-12-26T04:09:15.873Z,60.25
2016-12-26T04:10:24.571Z,61.02
2016-12-26T04:11:33.265Z,61.02
2016-12-26T04:12:41.990Z,60.35
2016-12-26T04:13:50.684Z,60.25
2016-12-26T04:14:59.377Z,60.44
2016-12-26T04:16:08.071Z,60.44
2016-12-26T04:17:16.766Z,61.21
2016-12-26T04:18:25.781Z,60.92
2016-12-26T04:19:34.479Z,61.21
2016-12-26T04:20:43.173Z,61.4
2016-12-26T04:21:51.885Z,60.92
2016-12-26T04:23:00.582Z,60.25
2016-12-26T04:24:09.282Z,59.78
2016-12-26T04:25:17.975Z,59.69
2016-12-26T04:26:26.670Z,58.65
2016-12-26T04:27:35.366Z,58.07
2016-12-26T04:28:44.070Z,58.17
2016-12-26T04:29:52.768Z,59.31
2016-12-26T04:31:01.463Z,58.74
2016-12-26T04:32:10.162Z,58.74
2016-12-26T04:33:18.886Z,58.17
2016-12-26T04:34:27.581Z,59.03
2016-12-26T04:35:36.273Z,58.65
2016-12-26T04:36:44.969Z,59.03
2016-12-26T04:37:53.669Z,59.41
2016-12-26T04:39:02.367Z,58.84
2016-12-26T04:40:11.059Z,57.89
2016-12-26T04:41:19.754Z,58.17
2016-12-26T04:42:28.450Z,57.89
2016-12-26T04:43:37.146Z,58.36
2016-12-26T04:44:45.839Z,57.32
2016-12-26T04:45:54.531Z,58.26
2016-12-26T04:47:03.227Z,58.07
2016-12-26T04:48:11.920Z,58.36
2016-12-26T04:49:20.620Z,58.26
2016-12-26T04:50:29.318Z,58.26
2016-12-26T04:51:38.044Z,58.17
2016-12-26T04:52:46.738Z,57.98
2016-12-26T04:53:55.431Z,58.26
2016-12-26T04:55:04.441Z,58.74
2016-12-26T04:56:13.138Z,58.65
2016-12-26T04:57:21.840Z,57.89
2016-12-26T04:58:30.534Z,58.65
2016-12-26T04:59:39.232Z,57.51
2016-12-26T05:00:47.940Z,57.51
2016-12-26T05:01:56.634Z,56.94
2016-12-26T05:03:05.326Z,57.04
2016-12-26T05:04:14.021Z,57.32
2016-12-26T05:05:22.717Z,57.51
2016-12-26T05:06:31.411Z,56.37
2016-12-26T05:07:40.107Z,54.76
2016-12-26T05:08:48.804Z,55.33
2016-12-26T05:09:57.493Z,56.09
2016-12-26T05:11:06.187Z,57.13
2016-12-26T05:12:14.885Z,57.32
2016-12-26T05:13:23.578Z,56.56
2016-12-26T05:14:32.274Z,57.32
2016-12-26T05:15:40.968Z,57.89
2016-12-26T05:16:49.667Z,57.6
2016-12-26T05:17:58.364Z,57.98
2016-12-26T05:19:07.061Z,57.86
2016-12-26T05:20:15.759Z,57.39
2016-12-26T05:21:24.459Z,57.29
2016-12-26T05:22:33.155Z,57.86
2016-12-26T05:23:41.855Z,57.48
2016-12-26T05:24:50.555Z,57.29
2016-12-26T05:25:59.252Z,56.44
2016-12-26T05:27:07.946Z,56.06
2016-12-26T05:28:16.640Z,55.9
2016-12-26T05:29:25.334Z,56.18
2016-12-26T05:30:34.028Z,56.25
2016-12-26T05:31:42.723Z,56.25
2016-12-26T05:32:51.417Z,55.71
2016-12-26T05:34:00.107Z,56.94
2016-12-26T05:35:08.804Z,57.23
2016-12-26T05:36:17.498Z,57.29
2016-12-26T05:37:26.190Z,57.29
2016-12-26T05:38:34.891Z,57.76
2016-12-26T05:39:43.592Z,58.05
2016-12-26T05:40:52.600Z,58.05
2016-12-26T05:42:01.296Z,58.14
2016-12-26T05:43:09.988Z,59
2016-12-26T05:44:18.711Z,58.52
2016-12-26T05:45:27.411Z,59.28
2016-12-26T05:46:36.113Z,58.81
2016-12-26T05:47:44.810Z,58.43
2016-12-26T05:48:53.503Z,58.24
2016-12-26T05:50:02.199Z,58.24
2016-12-26T05:51:10.891Z,57.48
2016-12-26T05:52:19.584Z,58.05
2016-12-26T05:53:28.303Z,58.14
2016-12-26T05:54:36.997Z,58.14
2016-12-26T05:55:45.691Z,58.81
2016-12-26T05:56:54.382Z,59.19
2016-12-26T05:58:03.073Z,59.94
2016-12-26T05:59:11.763Z,59.66
2016-12-26T06:00:20.456Z,59.47
2016-12-26T06:01:29.250Z,59.66
2016-12-26T06:02:37.941Z,59
2016-12-26T06:03:46.640Z,60.03
2016-12-26T06:04:55.335Z,59.66
2016-12-26T06:06:04.031Z,59.28
2016-12-26T06:07:12.728Z,60.32
2016-12-26T06:08:21.422Z,59.47
2016-12-26T06:09:30.113Z,59.75
2016-12-26T06:10:38.805Z,59
2016-12-26T06:11:47.498Z,57.76
2016-12-26T06:12:56.190Z,57.95
2016-12-26T06:14:04.890Z,58.24
2016-12-26T06:15:13.585Z,57.95
2016-12-26T06:16:22.281Z,58.14
2016-12-26T06:17:30.971Z,58.24
2016-12-26T06:18:39.659Z,58.05
2016-12-26T06:19:48.357Z,59
2016-12-26T06:20:57.050Z,59.66
2016-12-26T06:22:05.741Z,60.32
2016-12-26T06:23:14.435Z,60.03
2016-12-26T06:24:23.124Z,59.28
2016-12-26T06:25:31.818Z,59.28
2016-12-26T06:26:40.512Z,59.09
2016-12-26T06:27:49.207Z,59
2016-12-26T06:28:57.902Z,58.71
2016-12-26T06:30:06.594Z,58.33
2016-12-26T06:31:15.316Z,57.67
2016-12-26T06:32:24.010Z,57.95
2016-12-26T06:33:32.705Z,58.24
2016-12-26T06:34:41.401Z,58.05
2016-12-26T06:35:50.091Z,57.48
2016-12-26T06:36:58.787Z,57.67
2016-12-26T06:38:07.489Z,57.48
2016-12-26T06:39:16.186Z,57.48
2016-12-26T06:40:24.878Z,57.86
2016-12-26T06:41:33.571Z,58.05
2016-12-26T06:42:42.263Z,58.05
2016-12-26T06:43:50.965Z,58.33
2016-12-26T06:44:59.657Z,57.95
2016-12-26T06:46:08.351Z,57.48
2016-12-26T06:47:17.041Z,57.95
2016-12-26T06:48:25.735Z,57.95
2016-12-26T06:49:34.463Z,58.14
2016-12-26T06:50:43.155Z,58.43
2016-12-26T06:51:51.879Z,57.83
2016-12-26T06:53:00.573Z,59
2016-12-26T06:54:09.267Z,59.28
2016-12-26T06:55:17.965Z,60.48
2016-12-26T06:56:26.655Z,60.96
2016-12-26T06:57:35.348Z,60.67
2016-12-26T06:58:44.045Z,60.19
2016-12-26T06:59:52.739Z,60.58
2016-12-26T07:01:01.433Z,60.67
2016-12-26T07:02:10.128Z,60.19
2016-12-26T07:03:18.828Z,60.38
2016-12-26T07:04:27.522Z,60.48
2016-12-26T07:05:36.219Z,60.19
2016-12-26T07:06:44.913Z,60.1
2016-12-26T07:07:53.917Z,60.19
2016-12-26T07:09:02.613Z,60.58
2016-12-26T07:10:11.312Z,60.1
2016-12-26T07:11:20.003Z,60.38
2016-12-26T07:12:28.700Z,60.19
2016-12-26T07:13:37.424Z,60.1
2016-12-26T07:14:46.115Z,60.48
2016-12-26T07:15:54.805Z,59.81
2016-12-26T07:17:03.526Z,60.1
2016-12-26T07:18:12.217Z,60.19
2016-12-26T07:19:20.912Z,60.48
2016-12-26T07:20:29.608Z,60.67
2016-12-26T07:21:38.301Z,60.58
2016-12-26T07:22:46.993Z,61.15
2016-12-26T07:23:55.684Z,61.33
2016-12-26T07:25:04.376Z,61.15
2016-12-26T07:26:13.069Z,61.43
2016-12-26T07:27:21.759Z,61.61
2016-12-26T07:28:30.452Z,61.33
2016-12-26T07:29:39.165Z,61.61
2016-12-26T07:30:47.860Z,61.61
2016-12-26T07:31:56.884Z,61.33
2016-12-26T07:33:05.579Z,61.43
2016-12-26T07:34:14.274Z,61.52
2016-12-26T07:35:22.969Z,61.99
2016-12-26T07:36:31.665Z,62.66
2016-12-26T07:37:40.359Z,62.56
2016-12-26T07:38:49.054Z,62.66
2016-12-26T07:39:57.745Z,62.66
2016-12-26T07:41:06.439Z,62.66
2016-12-26T07:42:15.137Z,62.56
2016-12-26T07:43:23.830Z,62.66
2016-12-26T07:44:32.527Z,62.56
2016-12-26T07:45:41.219Z,62.37
2016-12-26T07:46:49.919Z,62.37
2016-12-26T07:47:58.617Z,62.75
2016-12-26T07:49:07.315Z,63.32
2016-12-26T07:50:16.009Z,63.42
2016-12-26T07:51:24.698Z,63.23
2016-12-26T07:52:33.394Z,63.42
2016-12-26T07:53:42.084Z,63.42
2016-12-26T07:54:50.775Z,63.6
2016-12-26T07:55:59.785Z,63.6
2016-12-26T07:57:08.483Z,63.51
2016-12-26T07:58:17.179Z,63.42
2016-12-26T07:59:25.877Z,63.51
2016-12-26T08:00:34.578Z,63.13
2016-12-26T08:01:43.274Z,63.42
2016-12-26T08:02:52.279Z,63.32
2016-12-26T08:04:00.971Z,63.51
2016-12-26T08:05:09.666Z,63.13
2016-12-26T08:06:18.361Z,62.94
2016-12-26T08:07:27.053Z,63.32
2016-12-26T08:08:35.745Z,63.04
2016-12-26T08:09:44.442Z,62.66
2016-12-26T08:10:53.137Z,62.37
2016-12-26T08:12:01.832Z,62.47
2016-12-26T08:13:10.526Z,62.66
2016-12-26T08:14:19.225Z,63.04
2016-12-26T08:15:27.974Z,63.13
2016-12-26T08:16:36.675Z,63.7
2016-12-26T08:17:45.368Z,63.7
2016-12-26T08:18:54.061Z,63.51
2016-12-26T08:20:03.068Z,63.7
2016-12-26T08:21:11.760Z,63.51
2016-12-26T08:22:20.458Z,63.51
2016-12-26T08:23:29.157Z,63.7
2016-12-26T08:24:37.849Z,63.79
2016-12-26T08:25:46.541Z,64.26
2016-12-26T08:26:55.239Z,64.36
2016-12-26T08:28:03.934Z,64.45
2016-12-26T08:29:12.632Z,64.36
2016-12-26T08:30:21.328Z,64.45
2016-12-26T08:31:30.025Z,64.36
2016-12-26T08:32:38.715Z,64.07
2016-12-26T08:33:47.410Z,64.36
2016-12-26T08:34:56.109Z,64.55
2016-12-26T08:36:04.801Z,64.45
2016-12-26T08:37:13.495Z,64.64
2016-12-26T08:38:22.188Z,64.17
2016-12-26T08:39:30.876Z,63.98
2016-12-26T08:40:39.570Z,64.55
2016-12-26T08:41:48.264Z,64.55
2016-12-26T08:42:56.962Z,64.36
2016-12-26T08:44:05.653Z,63.6
2016-12-26T08:45:14.343Z,63.79
2016-12-26T08:46:23.036Z,63.89
2016-12-26T08:47:31.756Z,64.45
2016-12-26T08:48:40.452Z,64.55
2016-12-26T08:49:49.152Z,65.12
2016-12-26T08:50:57.845Z,65.12
2016-12-26T08:52:06.547Z,64.83
2016-12-26T08:53:15.242Z,65.21
2016-12-26T08:54:23.942Z,65.31
2016-12-26T08:55:32.635Z,64.83
2016-12-26T08:56:41.359Z,64.83
2016-12-26T08:57:50.049Z,65.4
2016-12-26T08:58:58.740Z,64.74
2016-12-26T09:00:07.429Z,65.02
2016-12-26T09:01:16.120Z,65.31
2016-12-26T09:02:24.815Z,65.31
2016-12-26T09:03:33.506Z,65.31
2016-12-26T09:04:42.204Z,65.31
2016-12-26T09:05:50.897Z,65.12
2016-12-26T09:06:59.592Z,65.02
2016-12-26T09:08:08.290Z,65.02
2016-12-26T09:09:16.984Z,64.64
2016-12-26T09:10:25.674Z,64.83
2016-12-26T09:11:34.369Z,64.83
2016-12-26T09:12:43.069Z,64.64
2016-12-26T09:13:51.761Z,64.26
2016-12-26T09:15:00.459Z,64.83
2016-12-26T09:16:09.153Z,64.36
2016-12-26T09:17:17.851Z,65.02
2016-12-26T09:18:26.546Z,65.21
2016-12-26T09:19:35.239Z,65.12
2016-12-26T09:20:43.961Z,65.4
2016-12-26T09:21:52.653Z,64.83
2016-12-26T09:23:01.347Z,65.21
2016-12-26T09:24:10.041Z,65.5
2016-12-26T09:25:18.735Z,65.5
2016-12-26T09:26:27.467Z,65.88
2016-12-26T09:27:36.177Z,65.88
2016-12-26T09:28:44.875Z,66.53
2016-12-26T09:29:53.569Z,66.92
2016-12-26T09:31:02.263Z,67.39
2016-12-26T09:32:10.959Z,67.01
2016-12-26T09:33:19.651Z,67.39
2016-12-26T09:34:28.377Z,67.3
2016-12-26T09:35:37.073Z,66.82
2016-12-26T09:36:45.798Z,67.2
2016-12-26T09:37:54.492Z,67.11
2016-12-26T09:39:03.183Z,67.77
2016-12-26T09:40:11.879Z,67.86
2016-12-26T09:41:20.572Z,68.71
2016-12-26T09:42:29.292Z,69.38
2016-12-26T09:43:37.985Z,69.47
2016-12-26T09:44:46.676Z,69.19
2016-12-26T09:45:55.374Z,69.57
2016-12-26T09:47:04.070Z,69.28
2016-12-26T09:48:12.765Z,69.85
2016-12-26T09:49:21.469Z,70.23
2016-12-26T09:50:30.162Z,70.23
2016-12-26T09:51:38.856Z,70.7
2016-12-26T09:52:47.549Z,70.79
2016-12-26T09:53:56.245Z,70.98
2016-12-26T09:55:04.943Z,71.55
2016-12-26T09:56:13.644Z,71.74
2016-12-26T09:57:22.366Z,72.22
2016-12-26T09:58:31.060Z,72.41
2016-12-26T09:59:39.752Z,72.31
2016-12-26T10:00:48.452Z,72.22
2016-12-26T10:01:57.154Z,72.97
2016-12-26T10:03:05.861Z,73.16
2016-12-26T10:04:14.554Z,73.2
2016-12-26T10:05:23.249Z,73.58
2016-12-26T10:06:31.943Z,74.21
2016-12-26T10:07:40.656Z,74.4
2016-12-26T10:08:49.366Z,75.05
2016-12-26T10:09:58.061Z,75.24
2016-12-26T10:11:06.755Z,75.53
2016-12-26T10:12:15.448Z,75.62
2016-12-26T10:13:24.151Z,75.91
2016-12-26T10:14:32.847Z,76.57
2016-12-26T10:15:41.542Z,76.48
2016-12-26T10:16:50.233Z,77.23
2016-12-26T10:17:58.928Z,77.14
2016-12-26T10:19:07.621Z,77.23
2016-12-26T10:20:16.315Z,77.51
2016-12-26T10:21:25.007Z,78.18
2016-12-26T10:22:33.703Z,78.46
2016-12-26T10:23:42.395Z,78.27
2016-12-26T10:24:51.088Z,78.94
2016-12-26T10:25:59.783Z,79.13
2016-12-26T10:27:08.480Z,79.41
2016-12-26T10:28:17.174Z,79.98
2016-12-26T10:29:25.871Z,79.79
2016-12-26T10:30:34.560Z,80.26
2016-12-26T10:31:43.259Z,80.36
2016-12-26T10:32:51.955Z,80.55
2016-12-26T10:34:00.650Z,80.83
2016-12-26T10:35:09.351Z,80.83
2016-12-26T10:36:18.046Z,81.21
2016-12-26T10:37:26.742Z,81.3
2016-12-26T10:38:35.437Z,81.68
2016-12-26T10:39:44.130Z,81.77
2016-12-26T10:40:52.835Z,82.06
2016-12-26T10:42:01.525Z,82.15
2016-12-26T10:43:10.222Z,82.06
2016-12-26T10:44:18.914Z,81.96
2016-12-26T10:45:27.608Z,81.68
2016-12-26T10:46:36.307Z,81.96
2016-12-26T10:47:45.001Z,81.59
2016-12-26T10:48:53.692Z,81.21
2016-12-26T10:50:02.381Z,80.26
2016-12-26T10:51:11.072Z,79.6
2016-12-26T10:52:19.766Z,79.98
2016-12-26T10:53:28.463Z,79.13
2016-12-26T10:54:37.156Z,77.7
2016-12-26T10:55:45.890Z,78.22
2016-12-26T10:56:54.619Z,77.37
2016-12-26T10:58:03.319Z,76.8
2016-12-26T10:59:12.018Z,76.8
2016-12-26T11:00:20.710Z,76.51
2016-12-26T11:01:29.401Z,76.51
2016-12-26T11:02:38.093Z,76.23
2016-12-26T11:03:46.813Z,76.99
2016-12-26T11:04:55.508Z,77.18
2016-12-26T11:06:04.204Z,77.27
2016-12-26T11:07:12.897Z,77.75
2016-12-26T11:08:21.596Z,77.56
2016-12-26T11:09:30.320Z,77.65
2016-12-26T11:10:39.015Z,78.31
2016-12-26T11:11:47.708Z,78.22
2016-12-26T11:12:56.406Z,78.31
2016-12-26T11:14:05.100Z,78.5
2016-12-26T11:15:13.789Z,78.5
2016-12-26T11:16:22.490Z,77.89
2016-12-26T11:17:31.190Z,78.75
2016-12-26T11:18:39.887Z,78.65
2016-12-26T11:19:48.581Z,78.56
2016-12-26T11:20:57.274Z,79.13
2016-12-26T11:22:05.972Z,79.5
2016-12-26T11:23:14.683Z,79.5
2016-12-26T11:24:23.379Z,79.6
2016-12-26T11:25:32.074Z,79.88
2016-12-26T11:26:40.777Z,79.98
2016-12-26T11:27:49.468Z,80.07
2016-12-26T11:28:58.169Z,79.88
2016-12-26T11:30:06.895Z,80.26
2016-12-26T11:31:15.591Z,80.74
2016-12-26T11:32:24.280Z,81.12
2016-12-26T11:33:33.293Z,80.93
2016-12-26T11:34:42.299Z,81.12
2016-12-26T11:35:50.992Z,81.02
2016-12-26T11:36:59.687Z,80.83
2016-12-26T11:38:08.389Z,80.74
2016-12-26T11:39:17.083Z,81.12
2016-12-26T11:40:26.133Z,80.83
2016-12-26T11:41:34.829Z,80.74
2016-12-26T11:42:43.522Z,80.83
2016-12-26T11:43:52.217Z,81.4
2016-12-26T11:45:00.909Z,80.07
2016-12-26T11:46:09.601Z,80.36
2016-12-26T11:47:18.298Z,80.26
2016-12-26T11:48:26.990Z,80.17
2016-12-26T11:49:35.685Z,79.98
2016-12-26T11:50:44.375Z,79.03
2016-12-26T11:51:53.075Z,78.03
2016-12-26T11:53:01.867Z,77.84
2016-12-26T11:54:10.567Z,77.37
2016-12-26T11:55:19.259Z,76.32
2016-12-26T11:56:27.954Z,76.32
2016-12-26T11:57:36.645Z,76.14
2016-12-26T11:58:45.338Z,76.36
2016-12-26T11:59:54.031Z,75.51
2016-12-26T12:01:02.731Z,75.98
2016-12-26T12:02:11.453Z,76.17
2016-12-26T12:03:20.148Z,76.8
2016-12-26T12:04:29.160Z,76.32
2016-12-26T12:05:37.859Z,76.42
2016-12-26T12:06:46.553Z,75.42
2016-12-26T12:07:55.562Z,75.32
2016-12-26T12:09:04.259Z,75.09
2016-12-26T12:10:12.959Z,75.23
2016-12-26T12:11:21.654Z,75.13
2016-12-26T12:12:30.352Z,74.75
2016-12-26T12:13:39.050Z,74.66
2016-12-26T12:14:47.743Z,74.66
2016-12-26T12:15:56.439Z,74.75
2016-12-26T12:17:05.135Z,74.85
2016-12-26T12:18:13.831Z,74.37
2016-12-26T12:19:22.527Z,74.09
2016-12-26T12:20:31.253Z,74.18
2016-12-26T12:21:39.950Z,74.18
2016-12-26T12:22:48.651Z,74.47
2016-12-26T12:23:57.358Z,74.18
2016-12-26T12:25:06.057Z,75.04
2016-12-26T12:26:14.756Z,75.85
2016-12-26T12:27:23.450Z,76.42
2016-12-26T12:28:32.151Z,76.32
2016-12-26T12:29:40.843Z,76.42
2016-12-26T12:30:49.539Z,76.51
2016-12-26T12:31:58.236Z,76.51
2016-12-26T12:33:06.942Z,76.23
2016-12-26T12:34:15.980Z,75.85
2016-12-26T12:35:24.709Z,76.14
2016-12-26T12:36:33.447Z,75.76
2016-12-26T12:38:51.254Z,76.61
2016-12-26T12:39:59.946Z,76.8
2016-12-26T12:41:08.643Z,76.32
2016-12-26T12:42:17.340Z,76.61
2016-12-26T12:43:26.034Z,76.32
2016-12-26T12:44:34.738Z,75.47
2016-12-26T12:45:43.433Z,76.32
2016-12-26T12:46:52.130Z,76.8
2016-12-26T12:48:00.829Z,76.51
2016-12-26T12:49:09.540Z,76.48
2016-12-26T12:50:18.233Z,76.23
2016-12-26T12:51:26.950Z,75.57
2016-12-26T12:52:35.645Z,75.28
2016-12-26T12:53:44.344Z,76.04
2016-12-26T12:54:53.040Z,75.19
2016-12-26T12:56:01.735Z,75.72
2016-12-26T12:57:10.428Z,75.72
2016-12-26T12:58:19.121Z,75.91
2016-12-26T12:59:27.813Z,75.15
2016-12-26T13:00:36.515Z,75.15
2016-12-26T13:01:45.213Z,74.58
2016-12-26T13:02:53.908Z,74.68
2016-12-26T13:04:02.604Z,74.02
2016-12-26T13:05:11.298Z,73.83
2016-12-26T13:06:19.992Z,72.97
2016-12-26T13:07:28.687Z,72.41
2016-12-26T13:08:37.379Z,72.12
2016-12-26T13:09:46.096Z,71.27
2016-12-26T13:10:54.785Z,71.65
2016-12-26T13:12:03.478Z,71.27
2016-12-26T13:13:12.172Z,71.08
2016-12-26T13:14:20.864Z,70.61
2016-12-26T13:15:29.557Z,71.36
2016-12-26T13:16:38.253Z,70.61
2016-12-26T13:17:46.950Z,70.79
2016-12-26T13:18:55.695Z,70.42
2016-12-26T13:20:04.403Z,70.51
2016-12-26T13:21:13.408Z,70.23
2016-12-26T13:22:22.103Z,70.7
2016-12-26T13:23:30.796Z,70.89
2016-12-26T13:24:39.493Z,70.98
2016-12-26T13:25:48.184Z,71.08
2016-12-26T13:26:56.875Z,70.98
2016-12-26T13:28:05.566Z,71.36
2016-12-26T13:29:14.258Z,71.65
2016-12-26T13:30:22.952Z,72.12
2016-12-26T13:31:31.644Z,72.41
2016-12-26T13:32:40.343Z,72.03
2016-12-26T13:33:49.037Z,72.22
2016-12-26T13:34:57.727Z,72.12
2016-12-26T13:36:06.427Z,71.74
2016-12-26T13:37:15.117Z,71.36
2016-12-26T13:38:23.841Z,70.79
2016-12-26T13:39:32.536Z,70.7
2016-12-26T13:40:41.229Z,70.51
2016-12-26T13:41:49.920Z,69.47
2016-12-26T13:42:58.611Z,69.28
2016-12-26T13:44:07.316Z,69.09
2016-12-26T13:45:16.006Z,67.86
2016-12-26T13:46:24.700Z,68.05
2016-12-26T13:47:33.398Z,67.96
2016-12-26T13:48:42.408Z,67.01
2016-12-26T13:49:51.098Z,67.2
2016-12-26T13:50:59.798Z,67.01
2016-12-26T13:52:08.514Z,67.39
2016-12-26T13:53:17.213Z,66.44
2016-12-26T13:54:25.904Z,66.53
2016-12-26T13:55:34.598Z,66.53
2016-12-26T13:56:43.289Z,66.82
2016-12-26T13:57:51.982Z,66.53
2016-12-26T13:59:00.677Z,66.35
2016-12-26T14:00:09.373Z,66.73
2016-12-26T14:01:18.065Z,66.25
2016-12-26T14:02:26.757Z,66.06
2016-12-26T14:03:35.447Z,66.73
2016-12-26T14:04:44.139Z,66.53
2016-12-26T14:05:52.833Z,66.35
2016-12-26T14:07:01.532Z,66.73
2016-12-26T14:08:10.224Z,66.06
2016-12-26T14:09:18.912Z,64.74
2016-12-26T14:10:27.605Z,65.78
2016-12-26T14:11:36.294Z,65.88
2016-12-26T14:12:44.987Z,66.44
2016-12-26T14:13:53.682Z,65.69
2016-12-26T14:15:02.370Z,65.5
2016-12-26T14:16:11.064Z,65.12
2016-12-26T14:17:19.756Z,65.21
2016-12-26T14:18:28.452Z,65.02
2016-12-26T14:19:37.139Z,65.5
2016-12-26T14:20:45.829Z,65.31
2016-12-26T14:21:54.517Z,65.02
2016-12-26T14:23:03.214Z,65.5
2016-12-26T14:24:11.907Z,65.88
2016-12-26T14:25:20.604Z,65.5
2016-12-26T14:26:29.300Z,65.21
2016-12-26T14:27:37.990Z,64.83
2016-12-26T14:28:46.680Z,65.5
2016-12-26T14:29:55.371Z,65.21
2016-12-26T14:31:04.065Z,65.21
2016-12-26T14:32:12.760Z,65.4
2016-12-26T14:33:21.448Z,65.4
2016-12-26T14:34:30.143Z,65.12
2016-12-26T14:35:38.836Z,65.4
2016-12-26T14:36:47.525Z,65.84
2016-12-26T14:37:56.214Z,65.78
2016-12-26T14:39:04.912Z,66.16
2016-12-26T14:40:13.601Z,67.17
2016-12-26T14:41:22.297Z,66.98
2016-12-26T14:42:30.991Z,67.86
2016-12-26T14:43:39.684Z,67.83
2016-12-26T14:44:48.400Z,69.06
2016-12-26T14:45:57.091Z,69.15
2016-12-26T14:47:05.780Z,69.25
2016-12-26T14:48:14.471Z,69.44
2016-12-26T14:49:23.186Z,69.34